21 Aug 2018 01:49 UTC 2018233+01:49 UTC

Overview Datums Bench Marks Data Query Site Visit Daily QC Messages Attributes

130: GBRA Station #2

28° 24' 26" N   96° 42' 43" W
GBRA2
Guadalupe Blanco River Authority (GBRA) GBRA

Station Information

GBRA Station #2
GBRA Station #2
more pictures
 
Station Name:GBRA Station #2
DNR ID:130
Location:28° 24' 26" N, 96° 42' 43" W

Water Level Forecasts

Latest Observations

Series Metric English Marine Observed at
Water Temperature 31.5 °C 88.7 °F 88.7 °F Aug 20 20:42 CDT
00h07m ago
Salinity 16.400 psu 16.400 psu 16.400 psu Aug 20 20:42 CDT
00h07m ago

Maps

GBRA Station #2
All Stations in Area
Entire Network
 

Recent Observations

Date/Time Water
Temp (°F)
Sal (psu)
Aug 20 20:00 CDT 88.7 16.000
Aug 20 19:00 CDT 88.9 15.800
Aug 20 18:00 CDT 89.1 15.700
Aug 20 17:00 CDT 88.9 15.800
Aug 20 16:00 CDT 88.7 15.800
Aug 20 15:00 CDT 88.3 15.500
Aug 20 14:00 CDT 87.6 15.600
Aug 20 13:00 CDT 86.4 14.600
Aug 20 12:00 CDT 85.8 14.400
Aug 20 11:00 CDT 84.7 14.400
Aug 20 10:00 CDT 83.8 14.700
Aug 20 09:00 CDT 83.7 16.400
Aug 20 08:00 CDT 83.8 16.900
Aug 20 07:00 CDT 84.0 17.000
Aug 20 06:00 CDT 84.4 16.700
Aug 20 05:00 CDT 84.6 16.800
Aug 20 04:00 CDT 84.9 16.700
Aug 20 03:00 CDT 85.1 16.600
Aug 20 02:00 CDT 85.5 16.500
Aug 20 01:00 CDT 85.8 17.000
Aug 20 00:00 CDT 86.4 16.800
Aug 19 23:00 CDT 86.7 16.700
Aug 19 22:00 CDT 87.3 16.600
Aug 19 21:00 CDT 88.0 16.500
Aug 19 20:00 CDT 88.7 16.400

Historical Data Availability